sensor_id;sensor_type;location;lat;lon;timestamp;temperature;humidity
8537;DHT22;4306;50.210;10.628;2023-09-12T00:01:04;16.10;99.10
8537;DHT22;4306;50.210;10.628;2023-09-12T00:03:32;16.10;98.80
8537;DHT22;4306;50.210;10.628;2023-09-12T00:06:01;16.20;99.20
8537;DHT22;4306;50.210;10.628;2023-09-12T00:08:30;16.00;99.70
8537;DHT22;4306;50.210;10.628;2023-09-12T00:11:04;15.90;99.90
8537;DHT22;4306;50.210;10.628;2023-09-12T00:13:32;15.90;99.60
8537;DHT22;4306;50.210;10.628;2023-09-12T00:15:59;15.90;99.50
8537;DHT22;4306;50.210;10.628;2023-09-12T00:18:26;15.80;99.90
8537;DHT22;4306;50.210;10.628;2023-09-12T00:20:53;15.80;99.90
8537;DHT22;4306;50.210;10.628;2023-09-12T00:23:21;15.90;99.50
8537;DHT22;4306;50.210;10.628;2023-09-12T00:25:50;15.90;99.30
8537;DHT22;4306;50.210;10.628;2023-09-12T00:28:18;15.90;99.40
8537;DHT22;4306;50.210;10.628;2023-09-12T00:30:45;15.80;99.50
8537;DHT22;4306;50.210;10.628;2023-09-12T00:33:12;15.70;99.80
8537;DHT22;4306;50.210;10.628;2023-09-12T00:35:38;15.70;99.40
8537;DHT22;4306;50.210;10.628;2023-09-12T00:38:05;15.80;99.60
8537;DHT22;4306;50.210;10.628;2023-09-12T00:40:32;15.80;99.60
8537;DHT22;4306;50.210;10.628;2023-09-12T00:43:01;15.70;99.60
8537;DHT22;4306;50.210;10.628;2023-09-12T00:45:28;15.70;99.40
8537;DHT22;4306;50.210;10.628;2023-09-12T00:47:55;15.70;99.30
8537;DHT22;4306;50.210;10.628;2023-09-12T00:50:25;15.70;99.10
8537;DHT22;4306;50.210;10.628;2023-09-12T00:52:54;15.70;99.00
8537;DHT22;4306;50.210;10.628;2023-09-12T00:55:21;15.70;98.80
8537;DHT22;4306;50.210;10.628;2023-09-12T00:57:49;15.70;99.10
8537;DHT22;4306;50.210;10.628;2023-09-12T01:00:17;15.50;99.90
8537;DHT22;4306;50.210;10.628;2023-09-12T01:02:46;15.30;99.90
8537;DHT22;4306;50.210;10.628;2023-09-12T01:05:15;15.20;99.90
8537;DHT22;4306;50.210;10.628;2023-09-12T01:07:43;15.20;99.90
8537;DHT22;4306;50.210;10.628;2023-09-12T01:10:10;15.10;99.90
8537;DHT22;4306;50.210;10.628;2023-09-12T01:12:37;15.10;99.90
8537;DHT22;4306;50.210;10.628;2023-09-12T01:15:05;15.20;99.90
8537;DHT22;4306;50.210;10.628;2023-09-12T01:17:40;15.20;99.70
8537;DHT22;4306;50.210;10.628;2023-09-12T01:20:11;15.20;99.90
8537;DHT22;4306;50.210;10.628;2023-09-12T01:22:56;15.30;99.60
8537;DHT22;4306;50.210;10.628;2023-09-12T01:25:55;15.30;99.60
8537;DHT22;4306;50.210;10.628;2023-09-12T01:28:29;15.30;99.90
8537;DHT22;4306;50.210;10.628;2023-09-12T01:30:58;15.20;99.90
8537;DHT22;4306;50.210;10.628;2023-09-12T01:33:27;15.10;99.90
8537;DHT22;4306;50.210;10.628;2023-09-12T01:35:53;15.00;99.90
8537;DHT22;4306;50.210;10.628;2023-09-12T01:38:21;15.00;99.90
8537;DHT22;4306;50.210;10.628;2023-09-12T01:40:50;14.90;99.90
8537;DHT22;4306;50.210;10.628;2023-09-12T01:43:19;14.90;99.90
8537;DHT22;4306;50.210;10.628;2023-09-12T01:45:50;14.80;99.90
8537;DHT22;4306;50.210;10.628;2023-09-12T01:48:22;14.80;99.90
8537;DHT22;4306;50.210;10.628;2023-09-12T01:50:50;14.80;99.90
8537;DHT22;4306;50.210;10.628;2023-09-12T01:53:17;14.80;99.90
8537;DHT22;4306;50.210;10.628;2023-09-12T01:55:45;14.90;99.90
8537;DHT22;4306;50.210;10.628;2023-09-12T01:58:13;14.90;99.90
8537;DHT22;4306;50.210;10.628;2023-09-12T02:00:40;15.00;99.90
8537;DHT22;4306;50.210;10.628;2023-09-12T02:03:08;14.90;99.90
8537;DHT22;4306;50.210;10.628;2023-09-12T02:05:35;15.00;99.90
8537;DHT22;4306;50.210;10.628;2023-09-12T02:08:03;15.00;99.90
8537;DHT22;4306;50.210;10.628;2023-09-12T02:10:30;15.00;99.90
8537;DHT22;4306;50.210;10.628;2023-09-12T02:12:57;14.90;99.90
8537;DHT22;4306;50.210;10.628;2023-09-12T02:15:24;14.80;99.90
8537;DHT22;4306;50.210;10.628;2023-09-12T02:17:51;14.80;99.90
8537;DHT22;4306;50.210;10.628;2023-09-12T02:20:20;14.70;99.90
8537;DHT22;4306;50.210;10.628;2023-09-12T02:22:47;14.60;99.90
8537;DHT22;4306;50.210;10.628;2023-09-12T02:25:13;14.60;99.90
8537;DHT22;4306;50.210;10.628;2023-09-12T02:27:40;14.60;99.90
8537;DHT22;4306;50.210;10.628;2023-09-12T02:30:08;14.60;99.90
8537;DHT22;4306;50.210;10.628;2023-09-12T02:32:35;14.60;99.90
8537;DHT22;4306;50.210;10.628;2023-09-12T02:35:01;14.60;99.90
8537;DHT22;4306;50.210;10.628;2023-09-12T02:37:30;14.60;99.90
8537;DHT22;4306;50.210;10.628;2023-09-12T02:39:57;14.70;99.90
8537;DHT22;4306;50.210;10.628;2023-09-12T02:42:24;14.70;99.90
8537;DHT22;4306;50.210;10.628;2023-09-12T02:44:51;14.70;99.90
8537;DHT22;4306;50.210;10.628;2023-09-12T02:47:19;14.60;99.90
8537;DHT22;4306;50.210;10.628;2023-09-12T02:49:45;14.60;99.90
8537;DHT22;4306;50.210;10.628;2023-09-12T02:52:12;14.60;99.90
8537;DHT22;4306;50.210;10.628;2023-09-12T02:54:40;14.60;99.90
8537;DHT22;4306;50.210;10.628;2023-09-12T02:57:07;14.60;99.80
8537;DHT22;4306;50.210;10.628;2023-09-12T02:59:34;14.60;99.70
8537;DHT22;4306;50.210;10.628;2023-09-12T03:02:01;14.60;99.70
8537;DHT22;4306;50.210;10.628;2023-09-12T03:04:29;14.60;99.70
8537;DHT22;4306;50.210;10.628;2023-09-12T03:06:56;14.60;99.90
8537;DHT22;4306;50.210;10.628;2023-09-12T03:09:23;14.60;99.80
8537;DHT22;4306;50.210;10.628;2023-09-12T03:11:51;14.50;99.90
8537;DHT22;4306;50.210;10.628;2023-09-12T03:14:18;14.40;99.90
8537;DHT22;4306;50.210;10.628;2023-09-12T03:16:45;14.20;99.90
8537;DHT22;4306;50.210;10.628;2023-09-12T03:19:12;14.20;99.90
8537;DHT22;4306;50.210;10.628;2023-09-12T03:21:39;14.10;99.90
8537;DHT22;4306;50.210;10.628;2023-09-12T03:24:06;14.10;99.90
8537;DHT22;4306;50.210;10.628;2023-09-12T03:26:34;14.00;99.90
8537;DHT22;4306;50.210;10.628;2023-09-12T03:29:03;13.90;99.90
8537;DHT22;4306;50.210;10.628;2023-09-12T03:31:30;14.00;99.90
8537;DHT22;4306;50.210;10.628;2023-09-12T03:33:57;14.00;99.90
8537;DHT22;4306;50.210;10.628;2023-09-12T03:36:24;14.10;99.90
8537;DHT22;4306;50.210;10.628;2023-09-12T03:38:51;14.10;99.90
8537;DHT22;4306;50.210;10.628;2023-09-12T03:41:17;14.20;99.90
8537;DHT22;4306;50.210;10.628;2023-09-12T03:43:44;14.00;99.90
8537;DHT22;4306;50.210;10.628;2023-09-12T03:46:13;13.90;99.90
8537;DHT22;4306;50.210;10.628;2023-09-12T03:48:40;13.90;99.90
8537;DHT22;4306;50.210;10.628;2023-09-12T03:51:07;14.00;99.90
8537;DHT22;4306;50.210;10.628;2023-09-12T03:53:34;14.00;99.90
8537;DHT22;4306;50.210;10.628;2023-09-12T03:56:01;14.00;99.90
8537;DHT22;4306;50.210;10.628;2023-09-12T03:58:27;14.00;99.90
8537;DHT22;4306;50.210;10.628;2023-09-12T04:00:54;14.00;99.90
8537;DHT22;4306;50.210;10.628;2023-09-12T04:03:23;14.00;99.90
8537;DHT22;4306;50.210;10.628;2023-09-12T04:05:50;14.10;99.90
8537;DHT22;4306;50.210;10.628;2023-09-12T04:08:17;14.00;99.90
8537;DHT22;4306;50.210;10.628;2023-09-12T04:10:44;14.00;99.90
8537;DHT22;4306;50.210;10.628;2023-09-12T04:13:11;13.90;99.90
8537;DHT22;4306;50.210;10.628;2023-09-12T04:15:38;13.90;99.90
8537;DHT22;4306;50.210;10.628;2023-09-12T04:18:05;13.90;99.90
8537;DHT22;4306;50.210;10.628;2023-09-12T04:20:33;13.80;99.90
8537;DHT22;4306;50.210;10.628;2023-09-12T04:23:00;13.80;99.90
8537;DHT22;4306;50.210;10.628;2023-09-12T04:25:28;13.80;99.90
8537;DHT22;4306;50.210;10.628;2023-09-12T04:27:55;13.70;99.90
8537;DHT22;4306;50.210;10.628;2023-09-12T04:30:21;13.60;99.90
8537;DHT22;4306;50.210;10.628;2023-09-12T04:32:48;13.40;99.90
8537;DHT22;4306;50.210;10.628;2023-09-12T04:35:15;13.40;99.90
8537;DHT22;4306;50.210;10.628;2023-09-12T04:37:46;13.30;99.90
8537;DHT22;4306;50.210;10.628;2023-09-12T04:40:13;13.40;99.90
8537;DHT22;4306;50.210;10.628;2023-09-12T04:42:40;13.40;99.90
8537;DHT22;4306;50.210;10.628;2023-09-12T04:45:07;13.50;99.90
8537;DHT22;4306;50.210;10.628;2023-09-12T04:47:34;13.60;99.90
8537;DHT22;4306;50.210;10.628;2023-09-12T04:50:01;13.70;99.90
8537;DHT22;4306;50.210;10.628;2023-09-12T04:52:28;13.60;99.90
8537;DHT22;4306;50.210;10.628;2023-09-12T04:54:56;13.60;99.90
8537;DHT22;4306;50.210;10.628;2023-09-12T04:57:23;13.70;99.90
8537;DHT22;4306;50.210;10.628;2023-09-12T04:59:51;13.70;99.90
8537;DHT22;4306;50.210;10.628;2023-09-12T05:02:18;13.70;99.90
8537;DHT22;4306;50.210;10.628;2023-09-12T05:04:45;13.70;99.90
8537;DHT22;4306;50.210;10.628;2023-09-12T05:07:12;13.60;99.90
8537;DHT22;4306;50.210;10.628;2023-09-12T05:09:39;13.70;99.90
8537;DHT22;4306;50.210;10.628;2023-09-12T05:12:07;13.70;99.90
8537;DHT22;4306;50.210;10.628;2023-09-12T05:14:34;13.70;99.90
8537;DHT22;4306;50.210;10.628;2023-09-12T05:17:01;13.80;99.90
8537;DHT22;4306;50.210;10.628;2023-09-12T05:19:30;13.80;99.90
8537;DHT22;4306;50.210;10.628;2023-09-12T05:21:57;13.70;99.90
8537;DHT22;4306;50.210;10.628;2023-09-12T05:24:24;13.70;99.90
8537;DHT22;4306;50.210;10.628;2023-09-12T05:26:50;13.80;99.90
8537;DHT22;4306;50.210;10.628;2023-09-12T05:29:19;13.90;99.90
8537;DHT22;4306;50.210;10.628;2023-09-12T05:31:46;13.80;99.90
8537;DHT22;4306;50.210;10.628;2023-09-12T05:34:12;13.70;99.90
8537;DHT22;4306;50.210;10.628;2023-09-12T05:36:39;13.80;99.90
8537;DHT22;4306;50.210;10.628;2023-09-12T05:39:06;13.80;99.90
8537;DHT22;4306;50.210;10.628;2023-09-12T05:41:33;13.90;99.90
8537;DHT22;4306;50.210;10.628;2023-09-12T05:44:00;13.90;99.90
8537;DHT22;4306;50.210;10.628;2023-09-12T05:46:28;13.90;99.90
8537;DHT22;4306;50.210;10.628;2023-09-12T05:48:55;14.00;99.90
8537;DHT22;4306;50.210;10.628;2023-09-12T05:51:22;13.90;99.90
8537;DHT22;4306;50.210;10.628;2023-09-12T05:53:49;13.90;99.90
8537;DHT22;4306;50.210;10.628;2023-09-12T05:56:16;14.00;99.90
8537;DHT22;4306;50.210;10.628;2023-09-12T05:58:43;14.00;99.90
8537;DHT22;4306;50.210;10.628;2023-09-12T06:01:09;14.10;99.90
8537;DHT22;4306;50.210;10.628;2023-09-12T06:03:38;14.20;99.90
8537;DHT22;4306;50.210;10.628;2023-09-12T06:06:05;14.20;99.90
8537;DHT22;4306;50.210;10.628;2023-09-12T06:08:32;14.20;99.90
8537;DHT22;4306;50.210;10.628;2023-09-12T06:10:58;14.30;99.90
8537;DHT22;4306;50.210;10.628;2023-09-12T06:13:25;14.40;99.90
8537;DHT22;4306;50.210;10.628;2023-09-12T06:15:52;14.40;99.90
8537;DHT22;4306;50.210;10.628;2023-09-12T06:18:19;14.50;99.90
8537;DHT22;4306;50.210;10.628;2023-09-12T06:20:47;14.50;99.90
8537;DHT22;4306;50.210;10.628;2023-09-12T06:23:15;14.60;99.90
8537;DHT22;4306;50.210;10.628;2023-09-12T06:25:42;14.70;99.90
8537;DHT22;4306;50.210;10.628;2023-09-12T06:28:10;14.70;99.90
8537;DHT22;4306;50.210;10.628;2023-09-12T06:30:37;14.80;99.90
8537;DHT22;4306;50.210;10.628;2023-09-12T06:33:04;14.90;99.90
8537;DHT22;4306;50.210;10.628;2023-09-12T06:35:32;14.90;99.90
8537;DHT22;4306;50.210;10.628;2023-09-12T06:38:00;15.00;99.90
8537;DHT22;4306;50.210;10.628;2023-09-12T06:40:27;15.10;99.90
8537;DHT22;4306;50.210;10.628;2023-09-12T06:42:53;15.10;99.90
8537;DHT22;4306;50.210;10.628;2023-09-12T06:45:20;15.20;99.90
8537;DHT22;4306;50.210;10.628;2023-09-12T06:47:47;15.30;99.90
8537;DHT22;4306;50.210;10.628;2023-09-12T06:50:14;15.40;99.90
8537;DHT22;4306;50.210;10.628;2023-09-12T06:52:41;15.50;99.90
8537;DHT22;4306;50.210;10.628;2023-09-12T06:55:09;15.60;99.90
8537;DHT22;4306;50.210;10.628;2023-09-12T06:57:36;15.70;99.90
8537;DHT22;4306;50.210;10.628;2023-09-12T07:00:04;15.80;99.90
8537;DHT22;4306;50.210;10.628;2023-09-12T07:02:32;15.90;99.90
8537;DHT22;4306;50.210;10.628;2023-09-12T07:04:59;16.00;99.90
8537;DHT22;4306;50.210;10.628;2023-09-12T07:07:26;16.10;99.90
8537;DHT22;4306;50.210;10.628;2023-09-12T07:09:53;16.10;99.90
8537;DHT22;4306;50.210;10.628;2023-09-12T07:12:21;16.30;99.90
8537;DHT22;4306;50.210;10.628;2023-09-12T07:14:48;16.50;99.90
8537;DHT22;4306;50.210;10.628;2023-09-12T07:17:16;16.50;99.90
8537;DHT22;4306;50.210;10.628;2023-09-12T07:19:43;16.70;99.90
8537;DHT22;4306;50.210;10.628;2023-09-12T07:22:10;16.80;99.90
8537;DHT22;4306;50.210;10.628;2023-09-12T07:24:37;16.90;99.90
8537;DHT22;4306;50.210;10.628;2023-09-12T07:27:04;17.00;99.90
8537;DHT22;4306;50.210;10.628;2023-09-12T07:29:32;17.10;99.90
8537;DHT22;4306;50.210;10.628;2023-09-12T07:31:59;17.20;99.90
8537;DHT22;4306;50.210;10.628;2023-09-12T07:34:26;17.30;99.90
8537;DHT22;4306;50.210;10.628;2023-09-12T07:36:53;17.40;99.90
8537;DHT22;4306;50.210;10.628;2023-09-12T07:39:20;17.60;99.90
8537;DHT22;4306;50.210;10.628;2023-09-12T07:41:47;17.80;99.90
8537;DHT22;4306;50.210;10.628;2023-09-12T07:44:14;17.90;99.90
8537;DHT22;4306;50.210;10.628;2023-09-12T07:46:43;17.90;99.90
8537;DHT22;4306;50.210;10.628;2023-09-12T07:49:10;18.00;99.90
8537;DHT22;4306;50.210;10.628;2023-09-12T07:51:37;18.10;99.90
8537;DHT22;4306;50.210;10.628;2023-09-12T07:54:04;18.30;99.90
8537;DHT22;4306;50.210;10.628;2023-09-12T07:56:31;18.30;99.90
8537;DHT22;4306;50.210;10.628;2023-09-12T07:58:58;18.40;99.90
8537;DHT22;4306;50.210;10.628;2023-09-12T08:01:25;18.50;99.90
8537;DHT22;4306;50.210;10.628;2023-09-12T08:03:54;18.60;99.90
8537;DHT22;4306;50.210;10.628;2023-09-12T08:06:21;18.70;99.90
8537;DHT22;4306;50.210;10.628;2023-09-12T08:08:49;18.90;99.90
8537;DHT22;4306;50.210;10.628;2023-09-12T08:11:16;19.00;99.90
8537;DHT22;4306;50.210;10.628;2023-09-12T08:13:45;19.10;99.90
8537;DHT22;4306;50.210;10.628;2023-09-12T08:16:12;19.30;99.90
8537;DHT22;4306;50.210;10.628;2023-09-12T08:18:39;19.50;99.90
8537;DHT22;4306;50.210;10.628;2023-09-12T08:21:09;19.60;99.90
8537;DHT22;4306;50.210;10.628;2023-09-12T08:23:37;19.70;99.90
8537;DHT22;4306;50.210;10.628;2023-09-12T08:26:04;19.80;99.90
8537;DHT22;4306;50.210;10.628;2023-09-12T08:28:31;20.00;99.90
8537;DHT22;4306;50.210;10.628;2023-09-12T08:30:59;20.20;99.90
8537;DHT22;4306;50.210;10.628;2023-09-12T08:33:25;20.40;99.90
8537;DHT22;4306;50.210;10.628;2023-09-12T08:35:52;20.40;99.90
8537;DHT22;4306;50.210;10.628;2023-09-12T08:38:21;20.60;99.90
8537;DHT22;4306;50.210;10.628;2023-09-12T08:40:48;20.80;99.90
8537;DHT22;4306;50.210;10.628;2023-09-12T08:43:16;21.00;99.90
8537;DHT22;4306;50.210;10.628;2023-09-12T08:45:43;21.10;99.90
8537;DHT22;4306;50.210;10.628;2023-09-12T08:48:11;21.30;99.60
8537;DHT22;4306;50.210;10.628;2023-09-12T08:50:38;21.40;99.40
8537;DHT22;4306;50.210;10.628;2023-09-12T08:53:05;21.50;98.30
8537;DHT22;4306;50.210;10.628;2023-09-12T08:55:33;21.60;97.70
8537;DHT22;4306;50.210;10.628;2023-09-12T08:58:02;21.80;98.10
8537;DHT22;4306;50.210;10.628;2023-09-12T09:00:30;21.90;98.40
8537;DHT22;4306;50.210;10.628;2023-09-12T09:02:57;22.00;97.90
8537;DHT22;4306;50.210;10.628;2023-09-12T09:05:25;22.10;98.50
8537;DHT22;4306;50.210;10.628;2023-09-12T09:07:52;22.20;97.40
8537;DHT22;4306;50.210;10.628;2023-09-12T09:10:22;22.30;98.10
8537;DHT22;4306;50.210;10.628;2023-09-12T09:12:51;22.40;98.00
8537;DHT22;4306;50.210;10.628;2023-09-12T09:15:21;22.50;98.10
8537;DHT22;4306;50.210;10.628;2023-09-12T09:17:49;22.60;97.40
8537;DHT22;4306;50.210;10.628;2023-09-12T09:20:29;22.70;97.90
8537;DHT22;4306;50.210;10.628;2023-09-12T09:23:00;22.70;97.00
8537;DHT22;4306;50.210;10.628;2023-09-12T09:25:30;22.70;97.60
8537;DHT22;4306;50.210;10.628;2023-09-12T09:28:01;22.80;96.50
8537;DHT22;4306;50.210;10.628;2023-09-12T09:30:42;22.80;95.90
8537;DHT22;4306;50.210;10.628;2023-09-12T09:33:09;22.90;96.20
8537;DHT22;4306;50.210;10.628;2023-09-12T09:35:37;22.90;96.40
8537;DHT22;4306;50.210;10.628;2023-09-12T09:38:06;22.90;96.50
8537;DHT22;4306;50.210;10.628;2023-09-12T09:40:34;23.20;94.50
8537;DHT22;4306;50.210;10.628;2023-09-12T09:43:03;23.20;95.60
8537;DHT22;4306;50.210;10.628;2023-09-12T09:45:31;23.20;95.50
8537;DHT22;4306;50.210;10.628;2023-09-12T09:47:58;23.30;95.30
8537;DHT22;4306;50.210;10.628;2023-09-12T09:50:26;23.30;95.20
8537;DHT22;4306;50.210;10.628;2023-09-12T09:52:54;23.40;96.00
8537;DHT22;4306;50.210;10.628;2023-09-12T09:55:23;23.50;95.60
8537;DHT22;4306;50.210;10.628;2023-09-12T09:57:50;23.70;95.40
8537;DHT22;4306;50.210;10.628;2023-09-12T10:00:22;23.80;94.60
8537;DHT22;4306;50.210;10.628;2023-09-12T10:02:50;23.90;95.40
8537;DHT22;4306;50.210;10.628;2023-09-12T10:05:18;24.00;95.10
8537;DHT22;4306;50.210;10.628;2023-09-12T10:07:48;24.10;95.00
8537;DHT22;4306;50.210;10.628;2023-09-12T10:10:17;24.20;95.00
8537;DHT22;4306;50.210;10.628;2023-09-12T10:12:49;24.30;94.40
8537;DHT22;4306;50.210;10.628;2023-09-12T10:15:20;24.40;93.60
8537;DHT22;4306;50.210;10.628;2023-09-12T10:17:55;24.50;94.50
8537;DHT22;4306;50.210;10.628;2023-09-12T10:20:28;24.50;94.70
8537;DHT22;4306;50.210;10.628;2023-09-12T10:23:03;24.60;94.90
8537;DHT22;4306;50.210;10.628;2023-09-12T10:25:35;24.70;95.00
8537;DHT22;4306;50.210;10.628;2023-09-12T10:28:04;24.70;93.30
8537;DHT22;4306;50.210;10.628;2023-09-12T10:30:33;24.80;94.10
8537;DHT22;4306;50.210;10.628;2023-09-12T10:33:02;24.90;93.40
8537;DHT22;4306;50.210;10.628;2023-09-12T10:35:30;25.00;93.60
8537;DHT22;4306;50.210;10.628;2023-09-12T10:38:00;25.00;92.90
8537;DHT22;4306;50.210;10.628;2023-09-12T10:40:31;25.10;93.50
8537;DHT22;4306;50.210;10.628;2023-09-12T10:42:59;25.10;92.90
8537;DHT22;4306;50.210;10.628;2023-09-12T10:47:58;25.30;92.80
8537;DHT22;4306;50.210;10.628;2023-09-12T10:50:26;25.30;93.80
8537;DHT22;4306;50.210;10.628;2023-09-12T10:52:54;25.40;92.80
8537;DHT22;4306;50.210;10.628;2023-09-12T10:55:21;25.40;92.70
8537;DHT22;4306;50.210;10.628;2023-09-12T10:58:00;25.50;92.10
8537;DHT22;4306;50.210;10.628;2023-09-12T11:00:28;25.50;91.90
8537;DHT22;4306;50.210;10.628;2023-09-12T11:03:01;25.60;92.40
8537;DHT22;4306;50.210;10.628;2023-09-12T11:05:54;25.70;91.90
8537;DHT22;4306;50.210;10.628;2023-09-12T11:08:22;25.80;89.70
8537;DHT22;4306;50.210;10.628;2023-09-12T11:11:16;25.80;91.10
8537;DHT22;4306;50.210;10.628;2023-09-12T11:13:44;25.90;90.90
8537;DHT22;4306;50.210;10.628;2023-09-12T11:16:13;25.90;89.90
8537;DHT22;4306;50.210;10.628;2023-09-12T11:19:13;25.90;90.50
8537;DHT22;4306;50.210;10.628;2023-09-12T11:21:40;26.00;90.80
8537;DHT22;4306;50.210;10.628;2023-09-12T11:24:07;26.10;90.60
8537;DHT22;4306;50.210;10.628;2023-09-12T11:26:34;26.20;90.00
8537;DHT22;4306;50.210;10.628;2023-09-12T11:29:10;26.20;90.50
8537;DHT22;4306;50.210;10.628;2023-09-12T11:31:38;26.40;90.30
8537;DHT22;4306;50.210;10.628;2023-09-12T11:34:08;26.50;86.60
8537;DHT22;4306;50.210;10.628;2023-09-12T11:36:41;26.50;87.60
8537;DHT22;4306;50.210;10.628;2023-09-12T11:39:22;26.60;88.60
8537;DHT22;4306;50.210;10.628;2023-09-12T11:41:50;26.60;88.60
8537;DHT22;4306;50.210;10.628;2023-09-12T11:44:18;26.80;88.70
8537;DHT22;4306;50.210;10.628;2023-09-12T11:46:47;26.80;86.80
8537;DHT22;4306;50.210;10.628;2023-09-12T11:49:15;26.80;85.00
8537;DHT22;4306;50.210;10.628;2023-09-12T11:51:48;26.90;87.20
8537;DHT22;4306;50.210;10.628;2023-09-12T11:54:17;26.90;82.80
8537;DHT22;4306;50.210;10.628;2023-09-12T11:56:46;27.00;87.20
8537;DHT22;4306;50.210;10.628;2023-09-12T11:59:13;27.10;82.60
8537;DHT22;4306;50.210;10.628;2023-09-12T12:01:41;27.30;82.00
8537;DHT22;4306;50.210;10.628;2023-09-12T12:04:09;27.20;83.40
8537;DHT22;4306;50.210;10.628;2023-09-12T12:06:36;27.20;84.30
8537;DHT22;4306;50.210;10.628;2023-09-12T12:09:04;27.20;85.00
8537;DHT22;4306;50.210;10.628;2023-09-12T12:11:32;27.30;86.40
8537;DHT22;4306;50.210;10.628;2023-09-12T12:14:10;27.50;84.90
8537;DHT22;4306;50.210;10.628;2023-09-12T12:16:36;27.50;84.30
8537;DHT22;4306;50.210;10.628;2023-09-12T12:19:03;27.50;82.90
8537;DHT22;4306;50.210;10.628;2023-09-12T12:21:30;27.50;84.50
8537;DHT22;4306;50.210;10.628;2023-09-12T12:23:59;27.60;84.20
8537;DHT22;4306;50.210;10.628;2023-09-12T12:26:27;27.60;79.90
8537;DHT22;4306;50.210;10.628;2023-09-12T12:28:54;27.70;84.20
8537;DHT22;4306;50.210;10.628;2023-09-12T12:31:22;27.70;81.00
8537;DHT22;4306;50.210;10.628;2023-09-12T12:33:50;27.70;79.20
8537;DHT22;4306;50.210;10.628;2023-09-12T12:36:17;27.80;76.90
8537;DHT22;4306;50.210;10.628;2023-09-12T12:38:46;27.80;78.10
8537;DHT22;4306;50.210;10.628;2023-09-12T12:41:13;27.80;79.00
8537;DHT22;4306;50.210;10.628;2023-09-12T12:43:43;27.90;80.40
8537;DHT22;4306;50.210;10.628;2023-09-12T12:46:11;27.90;79.70
8537;DHT22;4306;50.210;10.628;2023-09-12T12:48:41;28.00;82.60
8537;DHT22;4306;50.210;10.628;2023-09-12T12:51:14;28.10;82.00
8537;DHT22;4306;50.210;10.628;2023-09-12T12:53:43;28.30;80.20
8537;DHT22;4306;50.210;10.628;2023-09-12T12:56:13;28.30;80.20
8537;DHT22;4306;50.210;10.628;2023-09-12T12:58:49;28.30;80.60
8537;DHT22;4306;50.210;10.628;2023-09-12T13:01:17;28.30;78.50
8537;DHT22;4306;50.210;10.628;2023-09-12T13:03:44;28.30;76.50
8537;DHT22;4306;50.210;10.628;2023-09-12T13:06:13;28.30;78.00
8537;DHT22;4306;50.210;10.628;2023-09-12T13:08:44;28.40;78.60
8537;DHT22;4306;50.210;10.628;2023-09-12T13:11:13;28.40;77.30
8537;DHT22;4306;50.210;10.628;2023-09-12T13:13:41;28.50;79.20
8537;DHT22;4306;50.210;10.628;2023-09-12T13:16:12;28.50;79.90
8537;DHT22;4306;50.210;10.628;2023-09-12T13:18:40;28.60;80.90
8537;DHT22;4306;50.210;10.628;2023-09-12T13:21:07;28.70;79.70
8537;DHT22;4306;50.210;10.628;2023-09-12T13:23:35;28.70;78.70
8537;DHT22;4306;50.210;10.628;2023-09-12T13:26:02;28.80;79.10
8537;DHT22;4306;50.210;10.628;2023-09-12T13:28:29;28.90;79.80
8537;DHT22;4306;50.210;10.628;2023-09-12T13:30:57;28.90;78.40
8537;DHT22;4306;50.210;10.628;2023-09-12T13:33:25;29.10;77.20
8537;DHT22;4306;50.210;10.628;2023-09-12T13:35:52;29.20;77.80
8537;DHT22;4306;50.210;10.628;2023-09-12T13:38:19;29.20;79.70
8537;DHT22;4306;50.210;10.628;2023-09-12T13:40:47;29.10;78.40
8537;DHT22;4306;50.210;10.628;2023-09-12T13:43:14;28.90;77.80
8537;DHT22;4306;50.210;10.628;2023-09-12T13:45:41;29.00;77.40
8537;DHT22;4306;50.210;10.628;2023-09-12T13:48:08;29.10;75.30
8537;DHT22;4306;50.210;10.628;2023-09-12T13:50:36;29.20;77.40
8537;DHT22;4306;50.210;10.628;2023-09-12T13:53:03;29.20;78.10
8537;DHT22;4306;50.210;10.628;2023-09-12T13:55:32;29.10;75.90
8537;DHT22;4306;50.210;10.628;2023-09-12T13:58:01;29.00;75.40
8537;DHT22;4306;50.210;10.628;2023-09-12T14:00:28;28.90;76.70
8537;DHT22;4306;50.210;10.628;2023-09-12T14:02:55;29.00;78.30
8537;DHT22;4306;50.210;10.628;2023-09-12T14:05:22;29.10;76.70
8537;DHT22;4306;50.210;10.628;2023-09-12T14:07:50;28.90;75.70
8537;DHT22;4306;50.210;10.628;2023-09-12T14:10:17;28.90;77.90
8537;DHT22;4306;50.210;10.628;2023-09-12T14:12:44;29.10;78.00
8537;DHT22;4306;50.210;10.628;2023-09-12T14:15:12;29.10;77.80
8537;DHT22;4306;50.210;10.628;2023-09-12T14:17:39;29.10;77.40
8537;DHT22;4306;50.210;10.628;2023-09-12T14:20:07;29.20;76.10
8537;DHT22;4306;50.210;10.628;2023-09-12T14:22:34;29.30;78.20
8537;DHT22;4306;50.210;10.628;2023-09-12T14:25:03;29.40;79.00
8537;DHT22;4306;50.210;10.628;2023-09-12T14:27:30;29.30;77.40
8537;DHT22;4306;50.210;10.628;2023-09-12T14:29:57;29.30;76.20
8537;DHT22;4306;50.210;10.628;2023-09-12T14:32:25;29.30;77.20
8537;DHT22;4306;50.210;10.628;2023-09-12T14:34:52;29.40;76.00
8537;DHT22;4306;50.210;10.628;2023-09-12T14:37:19;29.30;76.20
8537;DHT22;4306;50.210;10.628;2023-09-12T14:39:45;29.40;77.20
8537;DHT22;4306;50.210;10.628;2023-09-12T14:42:13;29.50;78.00
8537;DHT22;4306;50.210;10.628;2023-09-12T14:44:40;29.50;77.10
8537;DHT22;4306;50.210;10.628;2023-09-12T14:47:08;29.50;77.70
8537;DHT22;4306;50.210;10.628;2023-09-12T14:49:35;29.50;78.30
8537;DHT22;4306;50.210;10.628;2023-09-12T14:52:02;29.60;76.40
8537;DHT22;4306;50.210;10.628;2023-09-12T14:54:29;29.60;78.00
8537;DHT22;4306;50.210;10.628;2023-09-12T14:56:56;29.70;78.00
8537;DHT22;4306;50.210;10.628;2023-09-12T14:59:24;29.60;77.50
8537;DHT22;4306;50.210;10.628;2023-09-12T15:01:51;29.60;77.20
8537;DHT22;4306;50.210;10.628;2023-09-12T15:04:18;29.60;76.00
8537;DHT22;4306;50.210;10.628;2023-09-12T15:06:45;29.60;77.20
8537;DHT22;4306;50.210;10.628;2023-09-12T15:09:12;29.50;76.70
8537;DHT22;4306;50.210;10.628;2023-09-12T15:11:39;29.40;75.00
8537;DHT22;4306;50.210;10.628;2023-09-12T15:14:05;29.40;75.50
8537;DHT22;4306;50.210;10.628;2023-09-12T15:16:34;29.40;77.10
8537;DHT22;4306;50.210;10.628;2023-09-12T15:19:01;29.30;76.20
8537;DHT22;4306;50.210;10.628;2023-09-12T15:21:28;29.30;76.60
8537;DHT22;4306;50.210;10.628;2023-09-12T15:23:55;29.30;76.20
8537;DHT22;4306;50.210;10.628;2023-09-12T15:26:22;29.20;75.00
8537;DHT22;4306;50.210;10.628;2023-09-12T15:28:49;29.20;74.90
8537;DHT22;4306;50.210;10.628;2023-09-12T15:31:16;29.20;74.10
8537;DHT22;4306;50.210;10.628;2023-09-12T15:33:45;29.20;75.80
8537;DHT22;4306;50.210;10.628;2023-09-12T15:36:11;29.20;76.10
8537;DHT22;4306;50.210;10.628;2023-09-12T15:38:38;29.10;76.00
8537;DHT22;4306;50.210;10.628;2023-09-12T15:41:05;29.00;76.50
8537;DHT22;4306;50.210;10.628;2023-09-12T15:43:33;29.00;74.40
8537;DHT22;4306;50.210;10.628;2023-09-12T15:46:01;29.00;77.50
8537;DHT22;4306;50.210;10.628;2023-09-12T15:48:28;29.00;77.30
8537;DHT22;4306;50.210;10.628;2023-09-12T15:50:56;28.90;77.90
8537;DHT22;4306;50.210;10.628;2023-09-12T15:53:24;28.90;77.40